createdAt,value
2018-01-03T00:01:24.310Z,21.73
2018-01-03T00:03:50.295Z,7.07
2018-01-03T00:06:16.263Z,9.40
2018-01-03T00:08:42.244Z,7.97
2018-01-03T00:11:08.278Z,5.90
2018-01-03T00:13:34.314Z,5.97
2018-01-03T00:16:00.381Z,9.60
2018-01-03T00:18:26.334Z,5.73
2018-01-03T00:20:52.668Z,9.83
2018-01-03T00:23:18.634Z,6.90
2018-01-03T00:25:44.570Z,8.03
2018-01-03T00:28:11.234Z,7.83
2018-01-03T00:30:37.386Z,5.00
2018-01-03T00:33:03.311Z,6.67
2018-01-03T00:35:29.239Z,10.40
2018-01-03T00:37:55.176Z,6.83
2018-01-03T00:40:21.126Z,10.97
2018-01-03T00:42:47.155Z,6.90
2018-01-03T00:45:13.071Z,8.07
2018-01-03T00:47:38.986Z,5.67
2018-01-03T00:50:05.638Z,9.60
2018-01-03T00:52:31.670Z,5.20
2018-01-03T00:54:57.581Z,6.70
2018-01-03T00:57:23.490Z,8.10
2018-01-03T00:59:49.431Z,7.40
2018-01-03T01:02:15.326Z,8.50
2018-01-03T01:04:41.990Z,6.27
2018-01-03T01:07:08.093Z,6.53
2018-01-03T01:09:33.989Z,9.93
2018-01-03T01:11:59.885Z,7.47
2018-01-03T01:14:26.014Z,8.73
2018-01-03T01:16:51.962Z,21.10
2018-01-03T01:19:18.593Z,13.17
2018-01-03T01:21:45.225Z,7.70
2018-01-03T01:24:11.946Z,8.10
2018-01-03T01:26:37.902Z,5.00
2018-01-03T01:29:03.842Z,5.40
2018-01-03T01:31:29.754Z,9.20
2018-01-03T01:33:55.778Z,6.60
2018-01-03T01:36:21.797Z,4.27
2018-01-03T01:38:47.687Z,9.10
2018-01-03T01:41:13.593Z,7.63
2018-01-03T01:43:39.532Z,6.77
2018-01-03T01:46:05.467Z,11.20
2018-01-03T01:48:31.498Z,7.73
2018-01-03T01:50:57.417Z,3.87
2018-01-03T01:53:23.327Z,4.17
2018-01-03T01:55:49.233Z,3.80
2018-01-03T01:58:15.165Z,5.83
2018-01-03T02:00:41.922Z,6.17
2018-01-03T02:03:07.841Z,5.87
2018-01-03T02:05:33.737Z,5.70
2018-01-03T02:07:59.650Z,5.03
2018-01-03T02:10:25.574Z,4.97
2018-01-03T02:12:51.524Z,4.00
2018-01-03T02:15:17.470Z,4.87
2018-01-03T02:17:43.434Z,5.10
2018-01-03T02:20:09.387Z,4.37
2018-01-03T02:22:35.313Z,4.20
2018-01-03T02:25:01.347Z,6.63
2018-01-03T02:27:27.258Z,6.00
2018-01-03T02:29:53.177Z,4.67
2018-01-03T02:32:19.095Z,4.73
2018-01-03T02:34:45.022Z,5.40
2018-01-03T02:37:10.961Z,4.43
2018-01-03T02:39:36.894Z,6.10
2018-01-03T02:42:02.875Z,5.10
2018-01-03T02:44:28.758Z,5.63
2018-01-03T02:46:54.690Z,4.70
2018-01-03T02:49:20.614Z,6.77
2018-01-03T02:51:47.298Z,5.60
2018-01-03T02:54:13.367Z,4.10
2018-01-03T02:56:40.172Z,5.17
2018-01-03T02:59:06.166Z,5.40
2018-01-03T03:01:32.854Z,6.60
2018-01-03T03:03:58.799Z,4.10
2018-01-03T03:06:25.458Z,4.17
2018-01-03T03:08:51.399Z,4.00
2018-01-03T03:11:17.295Z,4.23
2018-01-03T03:13:44.008Z,3.83
2018-01-03T03:16:09.934Z,7.20
2018-01-03T03:18:36.597Z,4.23
2018-01-03T03:21:02.595Z,4.93
2018-01-03T03:23:28.517Z,3.73
2018-01-03T03:25:55.243Z,4.77
2018-01-03T03:28:21.133Z,4.33
2018-01-03T03:30:47.069Z,3.83
2018-01-03T03:33:12.982Z,4.20
2018-01-03T03:35:38.901Z,4.50
2018-01-03T03:38:04.806Z,3.70
2018-01-03T03:40:30.743Z,5.03
2018-01-03T03:42:56.670Z,4.60
2018-01-03T03:45:22.729Z,3.97
2018-01-03T03:47:48.639Z,5.27
2018-01-03T03:50:14.646Z,4.33
2018-01-03T03:52:40.558Z,6.07
2018-01-03T03:55:06.455Z,3.67
2018-01-03T03:57:32.480Z,3.93
2018-01-03T03:59:58.412Z,4.03
2018-01-03T04:02:24.311Z,3.50
2018-01-03T04:04:50.313Z,7.20
2018-01-03T04:07:16.241Z,3.30
2018-01-03T04:09:42.147Z,4.07
2018-01-03T04:12:08.049Z,4.77
2018-01-03T04:14:34.963Z,4.03
2018-01-03T04:17:01.065Z,3.30
2018-01-03T04:19:27.022Z,2.93
2018-01-03T04:21:53.068Z,3.70
2018-01-03T04:24:19.013Z,5.63
2018-01-03T04:26:44.946Z,3.30
2018-01-03T04:29:10.895Z,3.43
2018-01-03T04:31:36.819Z,3.47
2018-01-03T04:34:02.706Z,3.73
2018-01-03T04:36:28.602Z,3.03
2018-01-03T04:38:54.522Z,3.00
2018-01-03T04:41:20.427Z,3.30
2018-01-03T04:43:46.347Z,3.23
2018-01-03T04:46:12.950Z,3.00
2018-01-03T04:48:38.881Z,3.73
2018-01-03T04:51:04.809Z,3.20
2018-01-03T04:53:30.778Z,2.70
2018-01-03T04:55:56.754Z,3.67
2018-01-03T04:58:22.681Z,3.77
2018-01-03T05:00:49.371Z,3.13
2018-01-03T05:03:15.335Z,2.90
2018-01-03T05:05:41.358Z,3.10
2018-01-03T05:08:08.009Z,2.83
2018-01-03T05:10:34.473Z,5.30
2018-01-03T05:13:00.438Z,3.50
2018-01-03T05:15:26.900Z,3.37
2018-01-03T05:17:53.367Z,3.57
2018-01-03T05:20:19.819Z,3.23
2018-01-03T05:22:45.921Z,3.93
2018-01-03T05:25:11.848Z,3.90
2018-01-03T05:27:37.789Z,3.60
2018-01-03T05:30:03.727Z,4.10
2018-01-03T05:32:29.667Z,4.40
2018-01-03T05:34:55.572Z,3.97
2018-01-03T05:37:21.498Z,3.37
2018-01-03T05:39:48.099Z,3.90
2018-01-03T05:42:14.262Z,3.67
2018-01-03T05:44:40.988Z,4.83
2018-01-03T05:47:06.926Z,3.73
2018-01-03T05:49:33.598Z,3.93
2018-01-03T05:51:59.571Z,3.60
2018-01-03T05:54:25.507Z,3.23
2018-01-03T05:56:51.422Z,3.23
2018-01-03T05:59:18.222Z,3.70
2018-01-03T06:01:44.129Z,3.20
2018-01-03T06:04:10.082Z,3.63
2018-01-03T06:06:36.010Z,7.63
2018-01-03T06:09:01.983Z,3.40
2018-01-03T06:11:27.947Z,3.00
2018-01-03T06:13:53.866Z,3.37
2018-01-03T06:18:50.981Z,2.67
2018-01-03T06:21:16.926Z,2.63
2018-01-03T06:23:42.902Z,3.53
2018-01-03T06:26:09.894Z,2.53
2018-01-03T06:28:35.838Z,4.50
2018-01-03T06:31:02.017Z,2.17
2018-01-03T06:33:28.800Z,1.80
2018-01-03T06:35:54.871Z,1.20
2018-01-03T06:38:20.804Z,1.47
2018-01-03T06:40:46.735Z,2.33
2018-01-03T06:43:12.707Z,1.20
2018-01-03T06:45:38.610Z,1.40
2018-01-03T06:48:04.544Z,1.10
2018-01-03T06:50:30.497Z,1.63
2018-01-03T06:52:56.401Z,1.37
2018-01-03T06:55:23.064Z,1.33
2018-01-03T06:57:49.089Z,1.50
2018-01-03T07:00:15.079Z,2.20
2018-01-03T07:02:41.017Z,1.73
2018-01-03T07:05:06.913Z,1.50
2018-01-03T07:07:33.685Z,1.67
2018-01-03T07:09:59.607Z,1.50
2018-01-03T07:12:25.516Z,2.23
2018-01-03T07:14:51.626Z,2.97
2018-01-03T07:17:17.586Z,1.60
2018-01-03T07:19:43.618Z,1.63
2018-01-03T07:22:09.586Z,1.60
2018-01-03T07:24:35.639Z,2.50
2018-01-03T07:27:01.560Z,2.47
2018-01-03T07:29:27.506Z,1.73
2018-01-03T07:31:53.583Z,1.60
2018-01-03T07:34:19.482Z,2.33
2018-01-03T07:36:45.451Z,1.90
2018-01-03T07:39:11.379Z,1.80
2018-01-03T07:41:37.322Z,2.50
2018-01-03T07:44:03.213Z,2.53
2018-01-03T07:46:29.194Z,5.00
2018-01-03T07:48:55.210Z,4.27
2018-01-03T07:51:21.190Z,2.50
2018-01-03T07:53:47.161Z,5.60
2018-01-03T07:56:13.919Z,4.53
2018-01-03T07:58:39.861Z,2.37
2018-01-03T08:01:05.832Z,2.20
2018-01-03T08:03:31.763Z,2.10
2018-01-03T08:05:57.649Z,1.93
2018-01-03T08:08:23.594Z,2.33
2018-01-03T08:10:50.329Z,2.53
2018-01-03T08:13:16.240Z,3.73
2018-01-03T08:15:42.208Z,3.63
2018-01-03T08:18:08.132Z,3.27
2018-01-03T08:20:35.361Z,3.10
2018-01-03T08:23:03.732Z,3.17
2018-01-03T08:25:30.526Z,3.33
2018-01-03T08:27:56.505Z,2.60
2018-01-03T08:30:23.156Z,2.57
2018-01-03T08:32:49.134Z,2.10
2018-01-03T08:35:15.242Z,1.70
2018-01-03T08:37:41.209Z,2.33
2018-01-03T08:40:08.493Z,2.00
2018-01-03T08:42:34.424Z,1.60
2018-01-03T08:45:00.352Z,4.03
2018-01-03T08:47:26.279Z,1.30
2018-01-03T08:49:52.197Z,4.60
2018-01-03T08:52:18.502Z,2.37
2018-01-03T08:54:44.416Z,2.50
2018-01-03T08:57:10.359Z,5.03
2018-01-03T08:59:36.320Z,3.10
2018-01-03T09:02:02.270Z,1.80
2018-01-03T09:04:28.238Z,3.63
2018-01-03T09:06:54.157Z,2.20
2018-01-03T09:09:20.406Z,2.70
2018-01-03T09:11:46.308Z,1.90
2018-01-03T09:14:12.247Z,3.03
2018-01-03T09:16:38.155Z,3.97
2018-01-03T09:19:04.124Z,1.93
2018-01-03T09:21:30.131Z,2.80
2018-01-03T09:23:56.087Z,4.30
2018-01-03T09:26:21.992Z,4.90
2018-01-03T09:28:47.959Z,4.63
2018-01-03T09:31:13.989Z,5.70
2018-01-03T09:33:40.545Z,3.20
2018-01-03T09:36:06.480Z,2.50
2018-01-03T09:38:33.429Z,3.10
2018-01-03T09:40:59.348Z,4.57
2018-01-03T09:43:25.273Z,2.70
2018-01-03T09:45:56.089Z,4.77
2018-01-03T09:48:22.034Z,3.47
2018-01-03T09:50:47.990Z,5.77
2018-01-03T09:53:13.935Z,5.30
2018-01-03T09:55:40.061Z,6.17
2018-01-03T09:58:05.994Z,5.00
2018-01-03T10:00:32.021Z,6.53
2018-01-03T10:02:58.779Z,4.00
2018-01-03T10:05:24.782Z,6.67
2018-01-03T10:07:51.243Z,2.93
2018-01-03T10:10:17.251Z,3.60
2018-01-03T10:12:43.254Z,2.50
2018-01-03T10:15:09.175Z,2.07
2018-01-03T10:17:35.255Z,2.23
2018-01-03T10:20:01.960Z,2.17
2018-01-03T10:22:27.907Z,2.63
2018-01-03T10:24:53.809Z,1.57
2018-01-03T10:27:19.852Z,1.30
2018-01-03T10:29:46.782Z,2.10
2018-01-03T10:32:12.794Z,1.20
2018-01-03T10:34:38.761Z,1.20
2018-01-03T10:37:04.682Z,3.73
2018-01-03T10:39:30.670Z,1.30
2018-01-03T10:41:56.676Z,1.10
2018-01-03T10:44:22.604Z,1.10
2018-01-03T10:46:48.564Z,1.20
2018-01-03T10:49:14.526Z,2.30
2018-01-03T10:51:41.398Z,1.40
2018-01-03T10:54:14.796Z,2.70
2018-01-03T10:56:45.875Z,2.80
2018-01-03T10:59:11.785Z,1.70
2018-01-03T11:01:37.724Z,1.60
2018-01-03T11:04:03.733Z,5.13
2018-01-03T11:06:29.711Z,3.63
2018-01-03T11:08:55.656Z,3.53
2018-01-03T11:11:21.614Z,1.70
2018-01-03T11:13:47.664Z,5.57
2018-01-03T11:16:13.607Z,2.10
2018-01-03T11:18:39.580Z,4.43
2018-01-03T11:21:05.570Z,4.00
2018-01-03T11:23:31.520Z,3.57
2018-01-03T11:25:57.455Z,3.60
2018-01-03T11:28:23.565Z,6.33
2018-01-03T11:30:49.513Z,5.87
2018-01-03T11:33:16.206Z,3.97
2018-01-03T11:35:42.180Z,6.20
2018-01-03T11:38:08.143Z,6.90
2018-01-03T11:40:34.189Z,6.00
2018-01-03T11:43:00.127Z,8.43
2018-01-03T11:45:26.871Z,7.47
2018-01-03T11:47:52.784Z,6.30
2018-01-03T11:50:19.551Z,7.27
2018-01-03T11:52:45.450Z,5.27
2018-01-03T11:55:11.340Z,3.87
2018-01-03T11:57:37.808Z,6.90
2018-01-03T12:00:04.041Z,6.20
2018-01-03T12:02:30.366Z,5.13
2018-01-03T12:04:57.110Z,6.63
2018-01-03T12:07:23.111Z,5.80
2018-01-03T12:09:49.052Z,4.40
2018-01-03T12:12:14.987Z,7.23
2018-01-03T12:14:40.970Z,10.83
2018-01-03T12:17:07.860Z,6.53
2018-01-03T12:19:33.765Z,7.30
2018-01-03T12:21:59.782Z,5.90
2018-01-03T12:24:25.695Z,8.30
2018-01-03T12:26:51.604Z,9.07
2018-01-03T12:29:18.323Z,4.60
2018-01-03T12:31:44.266Z,8.77
2018-01-03T12:34:11.072Z,5.47
2018-01-03T12:36:37.042Z,7.43
2018-01-03T12:39:02.979Z,6.23
2018-01-03T12:41:28.922Z,8.17
2018-01-03T12:43:54.895Z,4.97
2018-01-03T12:46:21.573Z,11.23
2018-01-03T12:48:47.538Z,8.00
2018-01-03T12:51:13.494Z,12.47
2018-01-03T12:53:39.493Z,6.90
2018-01-03T12:56:05.415Z,5.40
2018-01-03T12:58:32.211Z,10.93
2018-01-03T13:00:58.207Z,8.33
2018-01-03T13:03:24.178Z,9.23
2018-01-03T13:05:51.022Z,14.97
2018-01-03T13:08:17.353Z,10.20
2018-01-03T13:10:44.030Z,5.00
2018-01-03T13:13:09.969Z,7.23
2018-01-03T13:15:36.886Z,7.33
2018-01-03T13:18:02.849Z,19.27
2018-01-03T13:20:29.698Z,6.00
2018-01-03T13:22:55.671Z,12.10
2018-01-03T13:25:21.579Z,7.17
2018-01-03T13:27:48.206Z,11.53
2018-01-03T13:30:15.174Z,5.97
2018-01-03T13:32:41.044Z,9.10
2018-01-03T13:35:07.007Z,6.30
2018-01-03T13:37:33.081Z,10.63
2018-01-03T13:39:59.006Z,6.23
2018-01-03T13:42:24.941Z,6.23
2018-01-03T13:44:50.851Z,7.80
2018-01-03T13:47:16.784Z,10.93
2018-01-03T13:49:42.759Z,9.53
2018-01-03T13:52:09.262Z,5.87
2018-01-03T13:54:35.163Z,6.87
2018-01-03T13:57:01.062Z,9.70
2018-01-03T13:59:27.442Z,7.80
2018-01-03T14:01:53.416Z,10.97
2018-01-03T14:04:19.439Z,9.57
2018-01-03T14:06:46.235Z,9.50
2018-01-03T14:09:12.508Z,7.20
2018-01-03T14:11:38.534Z,6.40
2018-01-03T14:14:04.504Z,10.93
2018-01-03T14:16:30.430Z,7.37
2018-01-03T14:18:56.404Z,6.37
2018-01-03T14:21:22.328Z,10.00
2018-01-03T14:23:49.314Z,8.40
2018-01-03T14:26:16.105Z,6.90
2018-01-03T14:28:42.044Z,3.37
2018-01-03T14:31:07.992Z,7.40
2018-01-03T14:33:35.602Z,12.73
2018-01-03T14:36:01.528Z,8.10
2018-01-03T14:38:28.242Z,6.63
2018-01-03T14:40:54.117Z,11.07
2018-01-03T14:43:20.070Z,6.40
2018-01-03T14:45:46.012Z,28.70
2018-01-03T14:48:11.936Z,8.70
2018-01-03T14:50:37.857Z,8.50
2018-01-03T14:53:03.888Z,9.93
2018-01-03T14:55:30.151Z,7.90
2018-01-03T14:57:56.881Z,11.93
2018-01-03T15:00:23.532Z,6.63
2018-01-03T15:02:49.518Z,8.87
2018-01-03T15:05:15.434Z,13.40
2018-01-03T15:07:41.604Z,9.47
2018-01-03T15:10:08.274Z,7.20
2018-01-03T15:12:34.169Z,12.17
2018-01-03T15:15:00.140Z,9.20
2018-01-03T15:17:26.061Z,5.63
2018-01-03T15:19:52.013Z,4.67
2018-01-03T15:22:17.940Z,8.23
2018-01-03T15:24:43.859Z,10.87
2018-01-03T15:27:09.754Z,16.27
2018-01-03T15:29:35.787Z,10.63
2018-01-03T15:32:02.567Z,6.00
2018-01-03T15:34:28.484Z,9.33
2018-01-03T15:36:54.406Z,5.30
2018-01-03T15:39:20.379Z,4.03
2018-01-03T15:41:46.272Z,7.50
2018-01-03T15:44:13.205Z,8.70
2018-01-03T15:46:39.125Z,4.90
2018-01-03T15:49:05.118Z,7.47
2018-01-03T15:51:31.094Z,7.10
2018-01-03T15:53:57.051Z,5.80
2018-01-03T15:56:23.024Z,8.00
2018-01-03T15:58:48.978Z,7.27
2018-01-03T16:01:14.883Z,4.47
2018-01-03T16:03:40.919Z,7.07
2018-01-03T16:06:06.884Z,12.53
2018-01-03T16:08:32.844Z,8.23
2018-01-03T16:10:58.811Z,6.60
2018-01-03T16:13:24.710Z,7.23
2018-01-03T16:15:51.422Z,5.50
2018-01-03T16:18:17.332Z,10.93
2018-01-03T16:20:43.305Z,13.83
2018-01-03T16:23:09.231Z,9.40
2018-01-03T16:25:36.051Z,10.83
2018-01-03T16:28:01.974Z,8.60
2018-01-03T16:30:28.611Z,14.03
2018-01-03T16:32:54.546Z,15.60
2018-01-03T16:35:20.532Z,9.97
2018-01-03T16:37:46.493Z,12.60
2018-01-03T16:40:12.413Z,9.30
2018-01-03T16:42:38.421Z,7.67
2018-01-03T16:45:05.219Z,10.40
2018-01-03T16:47:31.354Z,3.10
2018-01-03T16:49:57.333Z,10.10
2018-01-03T16:52:29.282Z,9.70
2018-01-03T16:54:55.207Z,8.43
2018-01-03T16:57:21.180Z,10.03
2018-01-03T16:59:47.119Z,6.13
2018-01-03T17:02:13.030Z,7.97
2018-01-03T17:04:38.962Z,7.33
2018-01-03T17:07:04.991Z,6.93
2018-01-03T17:09:31.735Z,9.30
2018-01-03T17:11:58.414Z,6.07
2018-01-03T17:14:24.418Z,6.37
2018-01-03T17:16:51.433Z,8.27
2018-01-03T17:19:18.132Z,9.27
2018-01-03T17:21:44.235Z,7.97
2018-01-03T17:24:10.213Z,6.03
2018-01-03T17:26:36.801Z,9.00
2018-01-03T17:29:02.969Z,9.40
2018-01-03T17:31:28.923Z,7.67
2018-01-03T17:33:54.814Z,3.90
2018-01-03T17:36:21.517Z,6.87
2018-01-03T17:38:47.441Z,8.03
2018-01-03T17:41:13.377Z,6.10
2018-01-03T17:43:40.033Z,7.40
2018-01-03T17:46:05.944Z,10.87
2018-01-03T17:48:31.861Z,9.50
2018-01-03T17:50:57.770Z,7.37
2018-01-03T17:53:23.694Z,7.43
2018-01-03T17:55:50.452Z,8.80
2018-01-03T17:58:17.102Z,6.80
2018-01-03T18:00:43.032Z,9.73
2018-01-03T18:03:09.080Z,3.67
2018-01-03T18:05:35.842Z,5.67
2018-01-03T18:08:01.764Z,6.57
2018-01-03T18:10:27.782Z,4.70
2018-01-03T18:12:53.678Z,3.70
2018-01-03T18:15:19.946Z,9.93
2018-01-03T18:17:45.836Z,8.67
2018-01-03T18:20:11.976Z,7.77
2018-01-03T18:22:38.676Z,10.80
2018-01-03T18:25:04.681Z,7.10
2018-01-03T18:27:31.371Z,6.23
2018-01-03T18:29:58.351Z,6.33
2018-01-03T18:32:25.003Z,10.30
2018-01-03T18:34:50.928Z,5.47
2018-01-03T18:37:17.565Z,9.97
2018-01-03T18:39:44.186Z,13.30
2018-01-03T18:42:10.850Z,7.93
2018-01-03T18:44:36.746Z,12.87
2018-01-03T18:47:03.403Z,10.43
2018-01-03T18:49:29.413Z,7.73
2018-01-03T18:51:56.172Z,9.43
2018-01-03T18:54:22.089Z,16.83
2018-01-03T18:56:48.038Z,20.43
2018-01-03T18:59:13.969Z,11.20
2018-01-03T19:01:39.930Z,10.13
2018-01-03T19:04:06.599Z,9.20
2018-01-03T19:06:32.530Z,10.57
2018-01-03T19:08:58.455Z,11.33
2018-01-03T19:11:24.368Z,14.30
2018-01-03T19:13:51.161Z,10.20
2018-01-03T19:16:17.815Z,20.70
2018-01-03T19:18:44.585Z,10.00
2018-01-03T19:21:10.550Z,12.03
2018-01-03T19:23:36.465Z,15.73
2018-01-03T19:26:02.386Z,8.47
2018-01-03T19:28:28.309Z,9.40
2018-01-03T19:30:54.240Z,11.10
2018-01-03T19:33:20.294Z,11.43
2018-01-03T19:35:46.262Z,12.30
2018-01-03T19:38:12.181Z,15.17
2018-01-03T19:40:38.111Z,8.97
2018-01-03T19:43:04.023Z,10.87
2018-01-03T19:45:29.963Z,8.47
2018-01-03T19:47:56.170Z,10.40
2018-01-03T19:50:22.078Z,14.80
2018-01-03T19:52:48.034Z,4.00
2018-01-03T19:55:13.962Z,9.20
2018-01-03T19:57:39.964Z,12.40
2018-01-03T20:00:06.155Z,9.60
2018-01-03T20:02:32.264Z,11.00
2018-01-03T20:04:58.243Z,9.17
2018-01-03T20:07:24.199Z,8.77
2018-01-03T20:09:50.328Z,9.10
2018-01-03T20:12:16.265Z,7.07
2018-01-03T20:14:42.227Z,10.30
2018-01-03T20:17:08.130Z,16.20
2018-01-03T20:19:34.066Z,14.20
2018-01-03T20:21:59.952Z,10.23
2018-01-03T20:24:25.918Z,21.60
2018-01-03T20:26:51.814Z,9.57
2018-01-03T20:29:17.735Z,11.90
2018-01-03T20:31:43.845Z,12.77
2018-01-03T20:34:09.810Z,8.50
2018-01-03T20:36:35.751Z,12.93
2018-01-03T20:39:02.480Z,14.80
2018-01-03T20:41:28.473Z,9.00
2018-01-03T20:43:54.357Z,10.87
2018-01-03T20:46:20.367Z,12.23
2018-01-03T20:48:46.280Z,16.13
2018-01-03T20:51:12.239Z,19.87
2018-01-03T20:53:38.242Z,20.33
2018-01-03T20:56:04.155Z,20.03
2018-01-03T20:58:30.179Z,18.03
2018-01-03T21:00:56.141Z,17.27
2018-01-03T21:03:22.164Z,15.93
2018-01-03T21:05:48.087Z,19.97
2018-01-03T21:08:14.186Z,11.10
2018-01-03T21:19:18.935Z,16.10
2018-01-03T21:21:44.899Z,27.60
2018-01-03T21:24:10.808Z,18.00
2018-01-03T21:26:36.750Z,16.83
2018-01-03T21:29:02.715Z,13.90
2018-01-03T21:31:28.746Z,17.23
2018-01-03T21:33:55.062Z,17.90
2018-01-03T21:36:22.013Z,10.97
2018-01-03T21:38:48.017Z,15.90
2018-01-03T21:41:14.729Z,14.83
2018-01-03T21:43:40.654Z,21.43
2018-01-03T21:46:06.566Z,13.83
2018-01-03T21:48:32.486Z,12.60
2018-01-03T21:50:58.438Z,11.57
2018-01-03T21:53:25.080Z,17.73
2018-01-03T21:55:51.054Z,15.70
2018-01-03T21:58:17.007Z,14.30
2018-01-03T22:00:43.174Z,9.57
2018-01-03T22:03:09.152Z,8.90
2018-01-03T22:05:35.046Z,6.17
2018-01-03T22:08:01.034Z,5.80
2018-01-03T22:10:26.941Z,16.57
2018-01-03T22:12:53.602Z,8.37
2018-01-03T22:15:19.659Z,10.53
2018-01-03T22:17:45.580Z,9.23
2018-01-03T22:20:11.506Z,8.40
2018-01-03T22:22:38.299Z,11.10
2018-01-03T22:25:04.241Z,9.80
2018-01-03T22:27:30.177Z,10.37
2018-01-03T22:29:56.148Z,7.70
2018-01-03T22:32:22.067Z,9.33
2018-01-03T22:34:48.763Z,19.60
2018-01-03T22:37:14.658Z,11.77
2018-01-03T22:39:40.595Z,11.40
2018-01-03T22:42:06.490Z,9.23
2018-01-03T22:44:32.466Z,13.17
2018-01-03T22:46:58.387Z,11.50
2018-01-03T22:49:25.049Z,14.00
2018-01-03T22:51:51.042Z,10.27
2018-01-03T22:54:16.954Z,15.10
2018-01-03T22:56:42.897Z,10.10
2018-01-03T22:59:08.816Z,9.17
2018-01-03T23:01:35.449Z,9.67
2018-01-03T23:04:02.083Z,13.57
2018-01-03T23:06:28.736Z,14.90
2018-01-03T23:08:54.660Z,12.13
2018-01-03T23:11:20.695Z,10.33
2018-01-03T23:13:46.620Z,15.13
2018-01-03T23:16:12.588Z,10.97
2018-01-03T23:18:38.523Z,11.53
2018-01-03T23:21:05.173Z,12.23
2018-01-03T23:23:31.823Z,10.63
2018-01-03T23:25:57.742Z,12.07
2018-01-03T23:28:23.735Z,9.53
2018-01-03T23:30:49.759Z,18.47
2018-01-03T23:33:15.996Z,12.67
2018-01-03T23:35:42.649Z,12.57
2018-01-03T23:38:08.599Z,11.80
2018-01-03T23:40:34.501Z,12.23
2018-01-03T23:43:00.420Z,14.70
2018-01-03T23:45:26.327Z,15.00
2018-01-03T23:47:53.490Z,12.00
2018-01-03T23:50:19.413Z,12.90
2018-01-03T23:52:45.312Z,16.10
2018-01-03T23:55:11.239Z,10.47
2018-01-03T23:57:37.887Z,10.77
